sensor_id;sensor_type;location;lat;lon;timestamp;P1;durP1;ratioP1;P2;durP2;ratioP2
23632;SDS011;11993;48.748;9.166;2023-05-23T00:00:53;45.95;;;29.40;;
23632;SDS011;11993;48.748;9.166;2023-05-23T00:03:18;47.80;;;32.00;;
23632;SDS011;11993;48.748;9.166;2023-05-23T00:05:46;57.15;;;29.67;;
23632;SDS011;11993;48.748;9.166;2023-05-23T00:08:12;51.25;;;29.77;;
23632;SDS011;11993;48.748;9.166;2023-05-23T00:10:38;57.45;;;33.30;;
23632;SDS011;11993;48.748;9.166;2023-05-23T00:13:03;56.53;;;34.20;;
23632;SDS011;11993;48.748;9.166;2023-05-23T00:15:29;53.40;;;31.05;;
23632;SDS011;11993;48.748;9.166;2023-05-23T00:17:55;53.60;;;34.08;;
23632;SDS011;11993;48.748;9.166;2023-05-23T00:20:20;64.45;;;35.92;;
23632;SDS011;11993;48.748;9.166;2023-05-23T00:22:46;52.92;;;33.97;;
23632;SDS011;11993;48.748;9.166;2023-05-23T00:25:13;56.33;;;36.08;;
23632;SDS011;11993;48.748;9.166;2023-05-23T00:27:38;64.60;;;36.85;;
23632;SDS011;11993;48.748;9.166;2023-05-23T00:30:04;67.88;;;40.15;;
23632;SDS011;11993;48.748;9.166;2023-05-23T00:32:30;65.75;;;36.17;;
23632;SDS011;11993;48.748;9.166;2023-05-23T00:34:55;72.25;;;42.15;;
23632;SDS011;11993;48.748;9.166;2023-05-23T00:37:21;63.95;;;39.08;;
23632;SDS011;11993;48.748;9.166;2023-05-23T00:39:47;72.82;;;42.15;;
23632;SDS011;11993;48.748;9.166;2023-05-23T00:42:13;83.18;;;46.25;;
23632;SDS011;11993;48.748;9.166;2023-05-23T00:44:38;71.13;;;42.58;;
23632;SDS011;11993;48.748;9.166;2023-05-23T00:47:04;69.95;;;41.85;;
23632;SDS011;11993;48.748;9.166;2023-05-23T00:49:31;71.35;;;41.08;;
23632;SDS011;11993;48.748;9.166;2023-05-23T00:51:57;76.82;;;45.17;;
23632;SDS011;11993;48.748;9.166;2023-05-23T00:54:24;77.45;;;43.95;;
23632;SDS011;11993;48.748;9.166;2023-05-23T00:56:52;69.10;;;39.90;;
23632;SDS011;11993;48.748;9.166;2023-05-23T00:59:18;75.75;;;44.60;;
23632;SDS011;11993;48.748;9.166;2023-05-23T01:01:45;72.15;;;43.40;;
23632;SDS011;11993;48.748;9.166;2023-05-23T01:04:12;72.72;;;43.97;;
23632;SDS011;11993;48.748;9.166;2023-05-23T01:06:38;71.95;;;41.33;;
23632;SDS011;11993;48.748;9.166;2023-05-23T01:09:04;73.72;;;44.22;;
23632;SDS011;11993;48.748;9.166;2023-05-23T01:11:44;71.22;;;43.80;;
23632;SDS011;11993;48.748;9.166;2023-05-23T01:14:41;72.20;;;42.78;;
23632;SDS011;11993;48.748;9.166;2023-05-23T01:17:34;79.25;;;45.45;;
23632;SDS011;11993;48.748;9.166;2023-05-23T01:20:32;74.03;;;44.90;;
23632;SDS011;11993;48.748;9.166;2023-05-23T01:26:02;82.75;;;47.10;;
23632;SDS011;11993;48.748;9.166;2023-05-23T01:28:39;77.40;;;44.78;;
23632;SDS011;11993;48.748;9.166;2023-05-23T01:31:10;63.78;;;40.58;;
23632;SDS011;11993;48.748;9.166;2023-05-23T01:33:37;75.63;;;43.45;;
23632;SDS011;11993;48.748;9.166;2023-05-23T01:36:04;75.80;;;44.63;;
23632;SDS011;11993;48.748;9.166;2023-05-23T01:38:30;73.40;;;44.72;;
23632;SDS011;11993;48.748;9.166;2023-05-23T01:40:55;79.28;;;44.08;;
23632;SDS011;11993;48.748;9.166;2023-05-23T01:43:21;70.20;;;43.60;;
23632;SDS011;11993;48.748;9.166;2023-05-23T01:45:48;89.03;;;49.63;;
23632;SDS011;11993;48.748;9.166;2023-05-23T01:48:15;84.22;;;48.95;;
23632;SDS011;11993;48.748;9.166;2023-05-23T01:50:42;74.57;;;45.47;;
23632;SDS011;11993;48.748;9.166;2023-05-23T01:53:09;77.22;;;47.22;;
23632;SDS011;11993;48.748;9.166;2023-05-23T01:55:36;72.25;;;45.10;;
23632;SDS011;11993;48.748;9.166;2023-05-23T01:58:03;76.90;;;47.95;;
23632;SDS011;11993;48.748;9.166;2023-05-23T02:00:29;84.65;;;49.53;;
23632;SDS011;11993;48.748;9.166;2023-05-23T02:02:55;67.07;;;43.30;;
23632;SDS011;11993;48.748;9.166;2023-05-23T02:05:21;91.65;;;52.85;;
23632;SDS011;11993;48.748;9.166;2023-05-23T02:07:47;74.55;;;46.83;;
23632;SDS011;11993;48.748;9.166;2023-05-23T02:10:12;77.03;;;48.88;;
23632;SDS011;11993;48.748;9.166;2023-05-23T02:12:38;79.88;;;50.20;;
23632;SDS011;11993;48.748;9.166;2023-05-23T02:15:03;83.47;;;51.72;;
23632;SDS011;11993;48.748;9.166;2023-05-23T02:17:29;82.28;;;51.30;;
23632;SDS011;11993;48.748;9.166;2023-05-23T02:19:55;81.65;;;51.97;;
23632;SDS011;11993;48.748;9.166;2023-05-23T02:22:24;83.32;;;52.13;;
23632;SDS011;11993;48.748;9.166;2023-05-23T02:24:50;80.45;;;49.80;;
23632;SDS011;11993;48.748;9.166;2023-05-23T02:27:16;85.72;;;54.80;;
23632;SDS011;11993;48.748;9.166;2023-05-23T02:29:41;90.40;;;54.40;;
23632;SDS011;11993;48.748;9.166;2023-05-23T02:32:07;79.38;;;50.42;;
23632;SDS011;11993;48.748;9.166;2023-05-23T02:34:33;91.55;;;53.50;;
23632;SDS011;11993;48.748;9.166;2023-05-23T02:36:58;74.82;;;46.83;;
23632;SDS011;11993;48.748;9.166;2023-05-23T02:39:24;83.63;;;48.03;;
23632;SDS011;11993;48.748;9.166;2023-05-23T02:41:49;81.28;;;49.28;;
23632;SDS011;11993;48.748;9.166;2023-05-23T02:44:15;93.15;;;53.95;;
23632;SDS011;11993;48.748;9.166;2023-05-23T02:46:43;83.32;;;51.40;;
23632;SDS011;11993;48.748;9.166;2023-05-23T02:49:09;79.50;;;50.30;;
23632;SDS011;11993;48.748;9.166;2023-05-23T02:51:35;83.18;;;50.63;;
23632;SDS011;11993;48.748;9.166;2023-05-23T02:54:00;83.82;;;51.45;;
23632;SDS011;11993;48.748;9.166;2023-05-23T02:56:26;76.15;;;51.22;;
23632;SDS011;11993;48.748;9.166;2023-05-23T02:58:51;76.70;;;49.50;;
23632;SDS011;11993;48.748;9.166;2023-05-23T03:01:17;80.45;;;49.88;;
23632;SDS011;11993;48.748;9.166;2023-05-23T03:03:43;91.20;;;56.75;;
23632;SDS011;11993;48.748;9.166;2023-05-23T03:06:09;82.80;;;54.53;;
23632;SDS011;11993;48.748;9.166;2023-05-23T03:08:38;84.88;;;53.70;;
23632;SDS011;11993;48.748;9.166;2023-05-23T03:11:07;80.68;;;52.33;;
23632;SDS011;11993;48.748;9.166;2023-05-23T03:13:33;77.70;;;51.08;;
23632;SDS011;11993;48.748;9.166;2023-05-23T03:15:59;77.22;;;53.13;;
23632;SDS011;11993;48.748;9.166;2023-05-23T03:18:24;78.03;;;52.17;;
23632;SDS011;11993;48.748;9.166;2023-05-23T03:20:50;73.55;;;50.45;;
23632;SDS011;11993;48.748;9.166;2023-05-23T03:23:16;77.00;;;51.95;;
23632;SDS011;11993;48.748;9.166;2023-05-23T03:25:41;75.82;;;49.47;;
23632;SDS011;11993;48.748;9.166;2023-05-23T03:28:07;84.40;;;53.13;;
23632;SDS011;11993;48.748;9.166;2023-05-23T03:30:33;78.43;;;51.35;;
23632;SDS011;11993;48.748;9.166;2023-05-23T03:32:58;75.88;;;48.90;;
23632;SDS011;11993;48.748;9.166;2023-05-23T03:35:25;73.85;;;50.85;;
23632;SDS011;11993;48.748;9.166;2023-05-23T03:37:51;82.25;;;52.97;;
23632;SDS011;11993;48.748;9.166;2023-05-23T03:40:16;67.78;;;49.30;;
23632;SDS011;11993;48.748;9.166;2023-05-23T03:42:42;74.40;;;50.85;;
23632;SDS011;11993;48.748;9.166;2023-05-23T03:45:08;70.88;;;46.67;;
23632;SDS011;11993;48.748;9.166;2023-05-23T03:47:33;71.15;;;48.33;;
23632;SDS011;11993;48.748;9.166;2023-05-23T03:49:59;71.15;;;48.70;;
23632;SDS011;11993;48.748;9.166;2023-05-23T03:52:24;74.68;;;51.60;;
23632;SDS011;11993;48.748;9.166;2023-05-23T03:54:50;69.07;;;46.38;;
23632;SDS011;11993;48.748;9.166;2023-05-23T03:57:16;67.25;;;46.90;;
23632;SDS011;11993;48.748;9.166;2023-05-23T03:59:41;62.83;;;45.20;;
23632;SDS011;11993;48.748;9.166;2023-05-23T04:02:07;72.85;;;49.38;;
23632;SDS011;11993;48.748;9.166;2023-05-23T04:04:32;74.13;;;50.95;;
23632;SDS011;11993;48.748;9.166;2023-05-23T04:06:59;65.50;;;45.58;;
23632;SDS011;11993;48.748;9.166;2023-05-23T04:09:25;64.93;;;45.15;;
23632;SDS011;11993;48.748;9.166;2023-05-23T04:11:51;68.78;;;45.13;;
23632;SDS011;11993;48.748;9.166;2023-05-23T04:14:16;65.88;;;45.65;;
23632;SDS011;11993;48.748;9.166;2023-05-23T04:16:44;63.25;;;45.22;;
23632;SDS011;11993;48.748;9.166;2023-05-23T04:19:09;63.92;;;44.33;;
23632;SDS011;11993;48.748;9.166;2023-05-23T04:21:36;58.15;;;41.10;;
23632;SDS011;11993;48.748;9.166;2023-05-23T04:24:01;65.90;;;47.08;;
23632;SDS011;11993;48.748;9.166;2023-05-23T04:26:27;59.15;;;42.13;;
23632;SDS011;11993;48.748;9.166;2023-05-23T04:28:53;57.63;;;43.15;;
23632;SDS011;11993;48.748;9.166;2023-05-23T04:31:19;59.83;;;41.97;;
23632;SDS011;11993;48.748;9.166;2023-05-23T04:33:46;67.00;;;44.63;;
23632;SDS011;11993;48.748;9.166;2023-05-23T04:36:12;61.63;;;42.88;;
23632;SDS011;11993;48.748;9.166;2023-05-23T04:38:37;60.42;;;41.17;;
23632;SDS011;11993;48.748;9.166;2023-05-23T04:41:05;60.28;;;42.08;;
23632;SDS011;11993;48.748;9.166;2023-05-23T04:43:31;57.15;;;39.92;;
23632;SDS011;11993;48.748;9.166;2023-05-23T04:45:58;58.33;;;40.00;;
23632;SDS011;11993;48.748;9.166;2023-05-23T04:48:24;57.45;;;42.60;;
23632;SDS011;11993;48.748;9.166;2023-05-23T04:50:51;58.33;;;43.28;;
23632;SDS011;11993;48.748;9.166;2023-05-23T04:53:19;57.58;;;41.83;;
23632;SDS011;11993;48.748;9.166;2023-05-23T04:55:46;59.10;;;43.15;;
23632;SDS011;11993;48.748;9.166;2023-05-23T04:58:11;71.38;;;45.13;;
23632;SDS011;11993;48.748;9.166;2023-05-23T05:00:37;57.08;;;39.80;;
23632;SDS011;11993;48.748;9.166;2023-05-23T05:03:02;52.72;;;40.40;;
23632;SDS011;11993;48.748;9.166;2023-05-23T05:05:28;56.05;;;41.55;;
23632;SDS011;11993;48.748;9.166;2023-05-23T05:07:53;51.95;;;37.63;;
23632;SDS011;11993;48.748;9.166;2023-05-23T05:10:19;58.72;;;39.75;;
23632;SDS011;11993;48.748;9.166;2023-05-23T05:12:45;52.05;;;37.72;;
23632;SDS011;11993;48.748;9.166;2023-05-23T05:15:13;49.55;;;38.33;;
23632;SDS011;11993;48.748;9.166;2023-05-23T05:17:41;55.65;;;40.08;;
23632;SDS011;11993;48.748;9.166;2023-05-23T05:20:07;54.53;;;41.42;;
23632;SDS011;11993;48.748;9.166;2023-05-23T05:22:34;50.90;;;38.50;;
23632;SDS011;11993;48.748;9.166;2023-05-23T05:25:05;58.67;;;37.85;;
23632;SDS011;11993;48.748;9.166;2023-05-23T05:27:31;52.95;;;36.92;;
23632;SDS011;11993;48.748;9.166;2023-05-23T05:29:57;52.00;;;37.75;;
23632;SDS011;11993;48.748;9.166;2023-05-23T05:32:28;82.40;;;55.58;;
23632;SDS011;11993;48.748;9.166;2023-05-23T05:34:58;71.68;;;52.22;;
23632;SDS011;11993;48.748;9.166;2023-05-23T05:37:24;57.60;;;41.40;;
23632;SDS011;11993;48.748;9.166;2023-05-23T05:39:49;46.78;;;34.72;;
23632;SDS011;11993;48.748;9.166;2023-05-23T05:42:15;48.83;;;36.80;;
23632;SDS011;11993;48.748;9.166;2023-05-23T05:44:40;54.17;;;40.03;;
23632;SDS011;11993;48.748;9.166;2023-05-23T05:47:06;66.35;;;49.72;;
23632;SDS011;11993;48.748;9.166;2023-05-23T05:49:32;49.05;;;37.75;;
23632;SDS011;11993;48.748;9.166;2023-05-23T05:51:57;45.47;;;36.35;;
23632;SDS011;11993;48.748;9.166;2023-05-23T05:54:23;45.85;;;35.67;;
23632;SDS011;11993;48.748;9.166;2023-05-23T05:56:48;55.38;;;38.63;;
23632;SDS011;11993;48.748;9.166;2023-05-23T05:59:14;53.42;;;40.80;;
23632;SDS011;11993;48.748;9.166;2023-05-23T06:01:39;46.42;;;36.63;;
23632;SDS011;11993;48.748;9.166;2023-05-23T06:04:05;49.40;;;35.65;;
23632;SDS011;11993;48.748;9.166;2023-05-23T06:06:30;41.22;;;32.88;;
23632;SDS011;11993;48.748;9.166;2023-05-23T06:08:56;49.28;;;35.70;;
23632;SDS011;11993;48.748;9.166;2023-05-23T06:11:22;51.20;;;35.88;;
23632;SDS011;11993;48.748;9.166;2023-05-23T06:13:47;45.05;;;33.80;;
23632;SDS011;11993;48.748;9.166;2023-05-23T06:16:13;53.30;;;41.08;;
23632;SDS011;11993;48.748;9.166;2023-05-23T06:18:39;51.97;;;36.85;;
23632;SDS011;11993;48.748;9.166;2023-05-23T06:21:05;42.70;;;35.25;;
23632;SDS011;11993;48.748;9.166;2023-05-23T06:23:30;42.83;;;35.10;;
23632;SDS011;11993;48.748;9.166;2023-05-23T06:25:57;49.72;;;38.33;;
23632;SDS011;11993;48.748;9.166;2023-05-23T06:28:23;44.85;;;35.03;;
23632;SDS011;11993;48.748;9.166;2023-05-23T06:30:49;56.45;;;41.70;;
23632;SDS011;11993;48.748;9.166;2023-05-23T06:33:15;79.40;;;59.75;;
23632;SDS011;11993;48.748;9.166;2023-05-23T06:35:41;49.85;;;40.47;;
23632;SDS011;11993;48.748;9.166;2023-05-23T06:38:07;51.13;;;40.30;;
23632;SDS011;11993;48.748;9.166;2023-05-23T06:40:33;54.05;;;41.55;;
23632;SDS011;11993;48.748;9.166;2023-05-23T06:42:58;45.80;;;35.45;;
23632;SDS011;11993;48.748;9.166;2023-05-23T06:45:24;47.88;;;37.15;;
23632;SDS011;11993;48.748;9.166;2023-05-23T06:47:50;48.60;;;37.35;;
23632;SDS011;11993;48.748;9.166;2023-05-23T06:50:16;41.63;;;34.33;;
23632;SDS011;11993;48.748;9.166;2023-05-23T06:52:43;43.53;;;35.75;;
23632;SDS011;11993;48.748;9.166;2023-05-23T06:55:10;44.40;;;34.95;;
23632;SDS011;11993;48.748;9.166;2023-05-23T06:57:39;44.70;;;36.08;;
23632;SDS011;11993;48.748;9.166;2023-05-23T07:00:05;49.25;;;35.50;;
23632;SDS011;11993;48.748;9.166;2023-05-23T07:02:31;41.95;;;34.95;;
23632;SDS011;11993;48.748;9.166;2023-05-23T07:04:56;47.17;;;36.90;;
23632;SDS011;11993;48.748;9.166;2023-05-23T07:07:22;57.03;;;41.13;;
23632;SDS011;11993;48.748;9.166;2023-05-23T07:09:47;44.67;;;36.95;;
23632;SDS011;11993;48.748;9.166;2023-05-23T07:12:13;48.28;;;37.35;;
23632;SDS011;11993;48.748;9.166;2023-05-23T07:14:38;51.90;;;38.75;;
23632;SDS011;11993;48.748;9.166;2023-05-23T07:17:04;44.28;;;34.75;;
23632;SDS011;11993;48.748;9.166;2023-05-23T07:19:30;44.83;;;34.22;;
23632;SDS011;11993;48.748;9.166;2023-05-23T07:21:55;45.22;;;35.15;;
23632;SDS011;11993;48.748;9.166;2023-05-23T07:24:21;44.00;;;36.17;;
23632;SDS011;11993;48.748;9.166;2023-05-23T07:26:46;38.78;;;31.33;;
23632;SDS011;11993;48.748;9.166;2023-05-23T07:29:12;40.05;;;33.30;;
23632;SDS011;11993;48.748;9.166;2023-05-23T07:31:38;36.05;;;29.98;;
23632;SDS011;11993;48.748;9.166;2023-05-23T07:34:03;38.17;;;32.13;;
23632;SDS011;11993;48.748;9.166;2023-05-23T07:36:29;38.40;;;28.75;;
23632;SDS011;11993;48.748;9.166;2023-05-23T07:38:57;43.88;;;31.27;;
23632;SDS011;11993;48.748;9.166;2023-05-23T07:41:23;34.95;;;28.20;;
23632;SDS011;11993;48.748;9.166;2023-05-23T07:43:49;38.65;;;30.65;;
23632;SDS011;11993;48.748;9.166;2023-05-23T07:46:15;37.05;;;29.70;;
23632;SDS011;11993;48.748;9.166;2023-05-23T07:48:40;38.78;;;33.60;;
23632;SDS011;11993;48.748;9.166;2023-05-23T07:51:06;46.72;;;37.65;;
23632;SDS011;11993;48.748;9.166;2023-05-23T07:53:32;53.42;;;38.03;;
23632;SDS011;11993;48.748;9.166;2023-05-23T07:55:58;50.70;;;41.45;;
23632;SDS011;11993;48.748;9.166;2023-05-23T07:58:24;41.30;;;35.03;;
23632;SDS011;11993;48.748;9.166;2023-05-23T08:00:50;40.45;;;32.90;;
23632;SDS011;11993;48.748;9.166;2023-05-23T08:03:15;46.92;;;35.00;;
23632;SDS011;11993;48.748;9.166;2023-05-23T08:05:42;34.17;;;28.35;;
23632;SDS011;11993;48.748;9.166;2023-05-23T08:08:08;35.42;;;29.05;;
23632;SDS011;11993;48.748;9.166;2023-05-23T08:10:34;39.45;;;29.77;;
23632;SDS011;11993;48.748;9.166;2023-05-23T08:12:59;47.80;;;38.22;;
23632;SDS011;11993;48.748;9.166;2023-05-23T08:15:28;47.10;;;36.03;;
23632;SDS011;11993;48.748;9.166;2023-05-23T08:17:53;32.45;;;26.88;;
23632;SDS011;11993;48.748;9.166;2023-05-23T08:20:29;47.05;;;34.03;;
23632;SDS011;11993;48.748;9.166;2023-05-23T08:23:01;36.95;;;30.58;;
23632;SDS011;11993;48.748;9.166;2023-05-23T08:25:27;36.58;;;29.95;;
23632;SDS011;11993;48.748;9.166;2023-05-23T08:27:59;33.80;;;27.88;;
23632;SDS011;11993;48.748;9.166;2023-05-23T08:30:26;33.90;;;24.92;;
23632;SDS011;11993;48.748;9.166;2023-05-23T08:32:52;30.20;;;23.73;;
23632;SDS011;11993;48.748;9.166;2023-05-23T08:35:19;30.02;;;23.52;;
23632;SDS011;11993;48.748;9.166;2023-05-23T08:37:45;33.05;;;25.83;;
23632;SDS011;11993;48.748;9.166;2023-05-23T08:40:18;29.60;;;24.83;;
23632;SDS011;11993;48.748;9.166;2023-05-23T08:42:45;32.90;;;23.33;;
23632;SDS011;11993;48.748;9.166;2023-05-23T08:45:12;28.38;;;22.70;;
23632;SDS011;11993;48.748;9.166;2023-05-23T08:47:38;26.17;;;22.45;;
23632;SDS011;11993;48.748;9.166;2023-05-23T08:50:06;26.42;;;22.98;;
23632;SDS011;11993;48.748;9.166;2023-05-23T08:52:34;29.38;;;23.02;;
23632;SDS011;11993;48.748;9.166;2023-05-23T08:55:04;24.88;;;20.30;;
23632;SDS011;11993;48.748;9.166;2023-05-23T08:57:30;23.90;;;19.83;;
23632;SDS011;11993;48.748;9.166;2023-05-23T08:59:56;27.85;;;19.95;;
23632;SDS011;11993;48.748;9.166;2023-05-23T09:02:24;23.55;;;18.63;;
23632;SDS011;11993;48.748;9.166;2023-05-23T09:04:49;36.80;;;20.90;;
23632;SDS011;11993;48.748;9.166;2023-05-23T09:07:15;26.55;;;19.02;;
23632;SDS011;11993;48.748;9.166;2023-05-23T09:09:43;27.30;;;21.10;;
23632;SDS011;11993;48.748;9.166;2023-05-23T09:12:09;23.95;;;19.83;;
23632;SDS011;11993;48.748;9.166;2023-05-23T09:14:37;26.80;;;20.20;;
23632;SDS011;11993;48.748;9.166;2023-05-23T09:17:03;27.58;;;21.15;;
23632;SDS011;11993;48.748;9.166;2023-05-23T09:19:28;26.17;;;19.63;;
23632;SDS011;11993;48.748;9.166;2023-05-23T09:21:55;27.48;;;19.92;;
23632;SDS011;11993;48.748;9.166;2023-05-23T09:24:20;23.60;;;19.80;;
23632;SDS011;11993;48.748;9.166;2023-05-23T09:26:46;26.55;;;19.02;;
23632;SDS011;11993;48.748;9.166;2023-05-23T09:29:12;23.73;;;17.60;;
23632;SDS011;11993;48.748;9.166;2023-05-23T09:31:37;28.40;;;17.83;;
23632;SDS011;11993;48.748;9.166;2023-05-23T09:34:03;25.55;;;17.42;;
23632;SDS011;11993;48.748;9.166;2023-05-23T09:36:29;23.20;;;19.75;;
23632;SDS011;11993;48.748;9.166;2023-05-23T09:38:57;23.38;;;18.88;;
23632;SDS011;11993;48.748;9.166;2023-05-23T09:41:29;22.35;;;18.08;;
23632;SDS011;11993;48.748;9.166;2023-05-23T09:43:56;19.50;;;16.00;;
23632;SDS011;11993;48.748;9.166;2023-05-23T09:46:26;18.80;;;15.73;;
23632;SDS011;11993;48.748;9.166;2023-05-23T09:48:52;20.83;;;15.82;;
23632;SDS011;11993;48.748;9.166;2023-05-23T09:51:20;18.08;;;15.20;;
23632;SDS011;11993;48.748;9.166;2023-05-23T09:53:47;20.00;;;16.33;;
23632;SDS011;11993;48.748;9.166;2023-05-23T09:56:12;21.50;;;15.13;;
23632;SDS011;11993;48.748;9.166;2023-05-23T09:58:41;16.75;;;14.80;;
23632;SDS011;11993;48.748;9.166;2023-05-23T10:01:12;19.25;;;13.50;;
23632;SDS011;11993;48.748;9.166;2023-05-23T10:06:12;20.13;;;13.20;;
23632;SDS011;11993;48.748;9.166;2023-05-23T10:08:45;17.05;;;12.95;;
23632;SDS011;11993;48.748;9.166;2023-05-23T10:11:37;17.95;;;12.55;;
23632;SDS011;11993;48.748;9.166;2023-05-23T10:14:32;15.55;;;12.35;;
23632;SDS011;11993;48.748;9.166;2023-05-23T10:20:03;16.23;;;11.88;;
23632;SDS011;11993;48.748;9.166;2023-05-23T10:22:33;15.93;;;13.43;;
23632;SDS011;11993;48.748;9.166;2023-05-23T10:25:02;12.20;;;10.90;;
23632;SDS011;11993;48.748;9.166;2023-05-23T10:27:29;14.10;;;10.93;;
23632;SDS011;11993;48.748;9.166;2023-05-23T10:29:56;12.88;;;10.20;;
23632;SDS011;11993;48.748;9.166;2023-05-23T10:32:23;16.05;;;11.55;;
23632;SDS011;11993;48.748;9.166;2023-05-23T10:34:53;15.48;;;10.25;;
23632;SDS011;11993;48.748;9.166;2023-05-23T10:37:47;14.45;;;12.55;;
23632;SDS011;11993;48.748;9.166;2023-05-23T10:40:16;13.67;;;11.33;;
23632;SDS011;11993;48.748;9.166;2023-05-23T10:43:00;13.35;;;9.50;;
23632;SDS011;11993;48.748;9.166;2023-05-23T10:45:40;11.77;;;9.75;;
23632;SDS011;11993;48.748;9.166;2023-05-23T10:48:19;21.65;;;16.90;;
23632;SDS011;11993;48.748;9.166;2023-05-23T10:51:05;20.02;;;13.57;;
23632;SDS011;11993;48.748;9.166;2023-05-23T10:53:39;11.35;;;10.07;;
23632;SDS011;11993;48.748;9.166;2023-05-23T10:56:07;10.45;;;9.32;;
23632;SDS011;11993;48.748;9.166;2023-05-23T10:58:35;12.82;;;9.63;;
23632;SDS011;11993;48.748;9.166;2023-05-23T11:01:06;10.95;;;8.60;;
23632;SDS011;11993;48.748;9.166;2023-05-23T11:03:36;10.88;;;8.93;;
23632;SDS011;11993;48.748;9.166;2023-05-23T11:06:08;12.10;;;9.88;;
23632;SDS011;11993;48.748;9.166;2023-05-23T11:09:11;10.50;;;9.00;;
23632;SDS011;11993;48.748;9.166;2023-05-23T11:11:50;11.32;;;9.90;;
23632;SDS011;11993;48.748;9.166;2023-05-23T11:19:54;12.65;;;8.27;;
23632;SDS011;11993;48.748;9.166;2023-05-23T11:22:27;9.70;;;8.48;;
23632;SDS011;11993;48.748;9.166;2023-05-23T11:24:56;9.60;;;7.60;;
23632;SDS011;11993;48.748;9.166;2023-05-23T11:27:33;13.45;;;9.30;;
23632;SDS011;11993;48.748;9.166;2023-05-23T11:30:14;16.77;;;9.75;;
23632;SDS011;11993;48.748;9.166;2023-05-23T11:32:41;15.25;;;9.20;;
23632;SDS011;11993;48.748;9.166;2023-05-23T11:35:15;14.00;;;10.52;;
23632;SDS011;11993;48.748;9.166;2023-05-23T11:37:40;15.95;;;11.88;;
23632;SDS011;11993;48.748;9.166;2023-05-23T11:42:59;22.35;;;7.20;;
23632;SDS011;11993;48.748;9.166;2023-05-23T11:45:27;11.80;;;7.43;;
23632;SDS011;11993;48.748;9.166;2023-05-23T11:47:53;9.07;;;7.20;;
23632;SDS011;11993;48.748;9.166;2023-05-23T11:50:19;10.80;;;8.30;;
23632;SDS011;11993;48.748;9.166;2023-05-23T11:52:46;16.27;;;8.50;;
23632;SDS011;11993;48.748;9.166;2023-05-23T11:55:18;8.57;;;7.68;;
23632;SDS011;11993;48.748;9.166;2023-05-23T11:57:45;8.93;;;8.00;;
23632;SDS011;11993;48.748;9.166;2023-05-23T12:00:11;11.73;;;7.82;;
23632;SDS011;11993;48.748;9.166;2023-05-23T12:02:37;12.43;;;9.30;;
23632;SDS011;11993;48.748;9.166;2023-05-23T12:05:10;12.88;;;9.38;;
23632;SDS011;11993;48.748;9.166;2023-05-23T12:07:49;11.43;;;8.52;;
23632;SDS011;11993;48.748;9.166;2023-05-23T12:10:15;10.70;;;9.35;;
23632;SDS011;11993;48.748;9.166;2023-05-23T12:12:41;13.35;;;7.93;;
23632;SDS011;11993;48.748;9.166;2023-05-23T12:15:08;14.35;;;7.80;;
23632;SDS011;11993;48.748;9.166;2023-05-23T12:17:38;11.80;;;8.15;;
23632;SDS011;11993;48.748;9.166;2023-05-23T12:20:09;9.75;;;8.10;;
23632;SDS011;11993;48.748;9.166;2023-05-23T12:22:36;10.07;;;7.22;;
23632;SDS011;11993;48.748;9.166;2023-05-23T12:25:01;8.30;;;7.18;;
23632;SDS011;11993;48.748;9.166;2023-05-23T12:27:29;7.93;;;7.13;;
23632;SDS011;11993;48.748;9.166;2023-05-23T12:30:04;14.38;;;6.60;;
23632;SDS011;11993;48.748;9.166;2023-05-23T12:32:31;11.82;;;6.30;;
23632;SDS011;11993;48.748;9.166;2023-05-23T12:34:57;25.65;;;18.05;;
23632;SDS011;11993;48.748;9.166;2023-05-23T12:37:23;12.23;;;9.50;;
23632;SDS011;11993;48.748;9.166;2023-05-23T12:39:49;9.38;;;5.93;;
23632;SDS011;11993;48.748;9.166;2023-05-23T12:42:15;6.65;;;5.82;;
23632;SDS011;11993;48.748;9.166;2023-05-23T12:44:41;6.22;;;5.50;;
23632;SDS011;11993;48.748;9.166;2023-05-23T12:47:07;9.10;;;6.25;;
23632;SDS011;11993;48.748;9.166;2023-05-23T12:49:34;9.93;;;5.75;;
23632;SDS011;11993;48.748;9.166;2023-05-23T12:52:00;7.80;;;5.40;;
23632;SDS011;11993;48.748;9.166;2023-05-23T12:54:25;8.77;;;5.72;;
23632;SDS011;11993;48.748;9.166;2023-05-23T12:56:51;10.23;;;5.15;;
23632;SDS011;11993;48.748;9.166;2023-05-23T12:59:16;20.63;;;6.57;;
23632;SDS011;11993;48.748;9.166;2023-05-23T13:01:42;14.32;;;6.68;;
23632;SDS011;11993;48.748;9.166;2023-05-23T13:04:08;8.18;;;4.72;;
23632;SDS011;11993;48.748;9.166;2023-05-23T13:06:33;4.70;;;4.30;;
23632;SDS011;11993;48.748;9.166;2023-05-23T13:08:59;6.28;;;4.40;;
23632;SDS011;11993;48.748;9.166;2023-05-23T13:11:26;6.10;;;4.85;;
23632;SDS011;11993;48.748;9.166;2023-05-23T13:13:52;6.30;;;4.85;;
23632;SDS011;11993;48.748;9.166;2023-05-23T13:16:17;12.60;;;4.80;;
23632;SDS011;11993;48.748;9.166;2023-05-23T13:18:43;17.52;;;5.60;;
23632;SDS011;11993;48.748;9.166;2023-05-23T13:21:08;10.07;;;4.38;;
23632;SDS011;11993;48.748;9.166;2023-05-23T13:23:34;6.10;;;4.30;;
23632;SDS011;11993;48.748;9.166;2023-05-23T13:26:01;7.05;;;3.97;;
23632;SDS011;11993;48.748;9.166;2023-05-23T13:28:27;5.82;;;4.53;;
23632;SDS011;11993;48.748;9.166;2023-05-23T13:30:53;8.93;;;4.43;;
23632;SDS011;11993;48.748;9.166;2023-05-23T13:33:19;4.32;;;3.83;;
23632;SDS011;11993;48.748;9.166;2023-05-23T13:35:46;5.57;;;3.55;;
23632;SDS011;11993;48.748;9.166;2023-05-23T13:38:13;4.28;;;3.88;;
23632;SDS011;11993;48.748;9.166;2023-05-23T13:40:40;5.65;;;3.40;;
23632;SDS011;11993;48.748;9.166;2023-05-23T13:43:05;9.45;;;4.30;;
23632;SDS011;11993;48.748;9.166;2023-05-23T13:45:31;6.70;;;4.50;;
23632;SDS011;11993;48.748;9.166;2023-05-23T13:47:57;7.43;;;4.57;;
23632;SDS011;11993;48.748;9.166;2023-05-23T13:50:23;5.00;;;4.10;;
23632;SDS011;11993;48.748;9.166;2023-05-23T13:52:48;9.80;;;3.70;;
23632;SDS011;11993;48.748;9.166;2023-05-23T13:55:14;4.55;;;3.70;;
23632;SDS011;11993;48.748;9.166;2023-05-23T13:57:40;4.45;;;3.78;;
23632;SDS011;11993;48.748;9.166;2023-05-23T14:00:05;5.68;;;3.28;;
23632;SDS011;11993;48.748;9.166;2023-05-23T14:02:32;5.18;;;3.20;;
23632;SDS011;11993;48.748;9.166;2023-05-23T14:04:58;3.83;;;3.42;;
23632;SDS011;11993;48.748;9.166;2023-05-23T14:07:23;6.60;;;3.88;;
23632;SDS011;11993;48.748;9.166;2023-05-23T14:09:49;4.32;;;3.40;;
23632;SDS011;11993;48.748;9.166;2023-05-23T14:12:14;7.30;;;3.47;;
23632;SDS011;11993;48.748;9.166;2023-05-23T14:14:40;8.02;;;3.83;;
23632;SDS011;11993;48.748;9.166;2023-05-23T14:17:06;4.95;;;2.90;;
23632;SDS011;11993;48.748;9.166;2023-05-23T14:19:31;7.70;;;3.72;;
23632;SDS011;11993;48.748;9.166;2023-05-23T14:21:57;8.38;;;4.05;;
23632;SDS011;11993;48.748;9.166;2023-05-23T14:24:22;9.18;;;5.82;;
23632;SDS011;11993;48.748;9.166;2023-05-23T14:26:48;15.88;;;9.63;;
23632;SDS011;11993;48.748;9.166;2023-05-23T14:29:14;12.27;;;8.15;;
23632;SDS011;11993;48.748;9.166;2023-05-23T14:31:40;5.68;;;5.03;;
23632;SDS011;11993;48.748;9.166;2023-05-23T14:34:05;8.02;;;5.45;;
23632;SDS011;11993;48.748;9.166;2023-05-23T14:36:31;7.20;;;4.25;;
23632;SDS011;11993;48.748;9.166;2023-05-23T14:38:57;3.97;;;3.55;;
23632;SDS011;11993;48.748;9.166;2023-05-23T14:41:22;7.20;;;3.88;;
23632;SDS011;11993;48.748;9.166;2023-05-23T14:43:48;5.47;;;4.00;;